Time;durP1;ratioP1;P1;durP2;ratioP2;P2;SDS_P1;SDS_P2;PMS_P1;PMS_P2;Temp;Humidity;BMP_temperature;BMP_pressure;BME280_temperature;BME280_humidity;BME280_pressure;Samples;Min_cycle;Max_cycle;Signal;HPM_P1;HPM_P2
2022/01/15 00:00:16;;;;;;;670.70;320.52;;;-1.20;99.90;;;;;;5074158;28;20100;-54
2022/01/15 00:02:42;;;;;;;761.17;383.23;;;-1.30;99.90;;;;;;5074561;28;20068;-54
2022/01/15 00:05:09;;;;;;;779.97;396.23;;;-1.20;99.90;;;;;;5074862;28;20016;-54
2022/01/15 00:07:35;;;;;;;761.20;386.10;;;-1.20;99.90;;;;;;5078174;28;20123;-54
2022/01/15 00:10:02;;;;;;;754.08;380.70;;;-1.20;99.90;;;;;;5078278;28;20066;-54
2022/01/15 00:12:35;;;;;;;742.10;375.85;;;-1.20;99.90;;;;;;5078286;28;20036;-54
2022/01/15 00:15:01;;;;;;;747.33;380.85;;;-1.20;99.90;;;;;;5078024;28;20493;-54
2022/01/15 00:20:12;;;;;;;607.15;305.65;;;-1.40;99.90;;;;;;5077936;28;20120;-54
2022/01/15 00:22:38;;;;;;;632.75;314.90;;;-1.50;99.90;;;;;;5078312;28;20036;-54
2022/01/15 00:25:05;;;;;;;645.10;327.05;;;-1.50;99.90;;;;;;5077954;28;20028;-54
2022/01/15 00:27:31;;;;;;;605.97;304.08;;;-1.50;99.90;;;;;;5077830;28;20398;-54
2022/01/15 00:29:57;;;;;;;601.35;296.67;;;-1.50;99.90;;;;;;5077786;28;20025;-54
2022/01/15 00:32:23;;;;;;;638.13;313.60;;;-1.50;99.90;;;;;;5077760;28;20029;-54
2022/01/15 00:34:48;;;;;;;620.67;307.90;;;-1.40;99.90;;;;;;5077698;28;20112;-54
2022/01/15 00:37:14;;;;;;;637.92;318.45;;;-1.40;99.90;;;;;;5077680;28;20036;-54
2022/01/15 00:39:40;;;;;;;1151.30;463.35;;;-1.50;99.90;;;;;;5076507;28;20020;-54
2022/01/15 00:42:09;;;;;;;1017.38;425.33;;;-1.50;99.90;;;;;;5077509;28;20024;-54
2022/01/15 00:44:48;;;;;;;688.10;314.30;;;-1.50;99.90;;;;;;5077631;28;20028;-54
2022/01/15 00:47:30;;;;;;;713.47;329.42;;;-1.60;99.90;;;;;;5062396;28;20060;-54
2022/01/15 00:50:00;;;;;;;815.17;348.80;;;-1.60;99.90;;;;;;5077426;28;20024;-54
2022/01/15 00:52:27;;;;;;;768.25;344.52;;;-1.50;99.90;;;;;;5077538;28;20048;-54
2022/01/15 00:54:53;;;;;;;1033.03;416.05;;;-1.50;99.90;;;;;;5059607;28;20378;-54
2022/01/15 00:57:19;;;;;;;836.60;344.55;;;-1.60;99.90;;;;;;5077249;28;20059;-54
2022/01/15 00:59:45;;;;;;;697.85;301.95;;;-1.40;99.90;;;;;;5077513;28;20020;-54
2022/01/15 01:02:11;;;;;;;623.22;275.70;;;-1.30;99.90;;;;;;5077372;28;20042;-54
2022/01/15 01:04:37;;;;;;;613.58;275.38;;;-1.30;99.90;;;;;;5077249;28;20499;-54
2022/01/15 01:07:03;;;;;;;697.70;311.13;;;-1.50;99.90;;;;;;5075988;28;20501;-53
2022/01/15 01:09:47;;;;;;;724.78;329.67;;;-1.60;99.90;;;;;;5077164;28;20024;-54
2022/01/15 01:21:30;;;;;;;757.72;338.10;;;-1.60;99.90;;;;;;5077107;28;20100;-54
2022/01/15 01:23:16;;;;;;;889.50;371.50;;;-1.60;99.90;;;;;;5068597;28;20047;-54
2022/01/15 01:25:48;;;;;;;826.80;364.23;;;-1.70;99.90;;;;;;5076859;28;20366;-54
2022/01/15 01:28:24;;;;;;;805.30;361.10;;;-1.60;99.90;;;;;;5077132;28;20028;-54
2022/01/15 01:30:57;;;;;;;721.50;325.70;;;-1.80;99.90;;;;;;5076829;28;20091;-54
2022/01/15 01:36:06;;;;;;;941.20;400.52;;;-1.70;99.90;;;;;;5076768;28;20028;-54
2022/01/15 01:38:48;;;;;;;879.05;384.13;;;-1.70;99.90;;;;;;5076627;28;20036;-54
2022/01/15 01:41:18;;;;;;;734.75;341.35;;;-1.70;99.90;;;;;;5076532;28;20428;-54
2022/01/15 01:43:50;;;;;;;733.90;329.80;;;-1.70;99.90;;;;;;5076645;28;20036;-54
2022/01/15 01:48:53;;;;;;;780.92;348.42;;;-1.80;99.90;;;;;;5076279;28;20040;-54
2022/01/15 01:51:22;;;;;;;814.88;371.67;;;-1.90;99.90;;;;;;5076328;28;20170;-54
2022/01/15 01:53:50;;;;;;;766.10;356.05;;;-1.80;99.90;;;;;;5076143;28;20516;-54
2022/01/15 01:56:16;;;;;;;734.55;337.65;;;-1.70;99.90;;;;;;5076246;28;20028;-54
2022/01/15 01:58:42;;;;;;;688.17;320.13;;;-1.60;99.90;;;;;;5076232;28;20025;-54
2022/01/15 02:01:08;;;;;;;679.75;317.63;;;-1.60;99.90;;;;;;5076291;28;20422;-54
2022/01/15 02:03:35;;;;;;;764.22;355.70;;;-1.60;99.90;;;;;;5076218;28;20067;-54
2022/01/15 02:06:01;;;;;;;650.13;300.48;;;-1.70;99.90;;;;;;5076155;28;20021;-54
2022/01/15 02:08:27;;;;;;;697.90;320.52;;;-1.70;99.90;;;;;;5075936;28;20029;-54
2022/01/15 02:10:54;;;;;;;705.72;328.15;;;-1.70;99.90;;;;;;5076041;28;20023;-54
2022/01/15 02:13:20;;;;;;;743.88;350.90;;;-1.70;99.90;;;;;;5075935;28;20427;-54
2022/01/15 02:15:46;;;;;;;723.72;341.20;;;-1.60;99.90;;;;;;5075888;28;20119;-54
2022/01/15 02:18:14;;;;;;;742.38;349.05;;;-1.70;99.90;;;;;;5075874;28;20378;-54
2022/01/15 02:23:34;;;;;;;688.42;325.80;;;-1.70;99.90;;;;;;5075796;28;20025;-54
2022/01/15 02:26:05;;;;;;;689.58;327.45;;;-1.60;99.90;;;;;;5075603;28;20042;-54
2022/01/15 02:28:36;;;;;;;708.17;334.55;;;-1.60;99.90;;;;;;5074994;28;20028;-54
2022/01/15 02:31:11;;;;;;;698.50;329.17;;;-1.60;99.90;;;;;;5075693;28;20032;-54
2022/01/15 02:33:39;;;;;;;763.70;374.15;;;-1.70;99.90;;;;;;5075505;28;20039;-54
2022/01/15 02:36:08;;;;;;;745.85;348.88;;;-1.60;99.90;;;;;;5075478;28;20430;-54
2022/01/15 02:38:36;;;;;;;721.33;339.02;;;-1.70;99.90;;;;;;5075432;28;20086;-54
2022/01/15 02:41:02;;;;;;;675.72;320.48;;;-1.70;99.90;;;;;;5075527;28;20017;-54
2022/01/15 02:43:32;;;;;;;682.97;323.27;;;-1.70;99.90;;;;;;5075091;28;20047;-54
2022/01/15 02:46:19;;;;;;;696.97;328.15;;;-1.70;99.90;;;;;;5075310;28;20024;-54
2022/01/15 02:48:47;;;;;;;684.10;327.50;;;-1.60;99.90;;;;;;5075240;28;20102;-54
2022/01/15 02:51:14;;;;;;;665.13;317.40;;;-1.60;99.90;;;;;;5057369;28;20031;-54
2022/01/15 02:53:41;;;;;;;677.00;322.33;;;-1.70;99.90;;;;;;5075251;28;20470;-54
2022/01/15 02:56:07;;;;;;;690.83;330.65;;;-1.80;99.90;;;;;;5075087;28;20032;-54
2022/01/15 02:58:33;;;;;;;672.63;318.52;;;-1.90;99.90;;;;;;5074820;28;20032;-54
2022/01/15 03:00:59;;;;;;;697.13;339.70;;;-1.80;99.90;;;;;;5075023;28;20050;-54
2022/01/15 03:03:25;;;;;;;683.60;337.95;;;-1.80;99.90;;;;;;5075106;28;20409;-54
2022/01/15 03:05:51;;;;;;;645.00;314.38;;;-1.80;99.90;;;;;;5074674;28;20036;-54
2022/01/15 03:08:17;;;;;;;646.28;309.63;;;-1.80;99.90;;;;;;5074987;28;20109;-54
2022/01/15 03:10:43;;;;;;;638.33;304.02;;;-1.80;99.90;;;;;;5074713;28;20032;-54
2022/01/15 03:13:12;;;;;;;654.83;305.08;;;-1.80;99.90;;;;;;5074635;28;20036;-54
2022/01/15 03:15:38;;;;;;;607.45;290.27;;;-1.90;99.90;;;;;;5074774;28;20516;-54
2022/01/15 03:18:05;;;;;;;646.13;302.63;;;-1.90;99.90;;;;;;5074460;28;20113;-54
2022/01/15 03:20:31;;;;;;;631.47;296.90;;;-1.80;99.90;;;;;;5074534;28;20044;-54
2022/01/15 03:22:57;;;;;;;651.65;313.33;;;-1.90;99.90;;;;;;5074741;28;20024;-54
2022/01/15 03:25:23;;;;;;;652.35;314.10;;;-2.00;99.90;;;;;;5074427;28;20356;-54
2022/01/15 03:27:50;;;;;;;672.90;322.23;;;-2.00;99.90;;;;;;5074645;28;20078;-54
2022/01/15 03:30:16;;;;;;;684.80;334.15;;;-1.90;99.90;;;;;;5074545;28;20024;-53
2022/01/15 03:32:45;;;;;;;660.45;318.83;;;-1.90;99.90;;;;;;5074525;28;20036;-54
2022/01/15 03:35:16;;;;;;;659.72;314.80;;;-1.80;99.90;;;;;;5074686;28;20029;-54
2022/01/15 03:37:42;;;;;;;629.88;294.60;;;-1.90;99.90;;;;;;5074329;28;20465;-54
2022/01/15 03:40:11;;;;;;;593.35;272.35;;;-2.00;99.90;;;;;;5074096;28;20029;-54
2022/01/15 03:42:37;;;;;;;548.67;248.55;;;-2.00;99.90;;;;;;5074321;28;20578;-54
2022/01/15 03:45:04;;;;;;;560.97;261.75;;;-2.00;99.90;;;;;;5074473;28;20067;-54
2022/01/15 03:47:30;;;;;;;556.67;249.60;;;-2.10;99.90;;;;;;5074410;28;20492;-54
2022/01/15 03:49:56;;;;;;;568.28;263.10;;;-2.10;99.90;;;;;;5074457;28;20025;-54
2022/01/15 03:52:22;;;;;;;595.17;274.90;;;-2.10;99.90;;;;;;5074256;28;20352;-54
2022/01/15 03:54:48;;;;;;;583.72;273.80;;;-2.20;99.90;;;;;;5074301;28;20021;-54
2022/01/15 03:57:14;;;;;;;585.40;271.95;;;-2.20;99.90;;;;;;5074390;28;20163;-53
2022/01/15 03:59:40;;;;;;;612.50;291.77;;;-2.20;99.90;;;;;;5074406;28;20033;-54
2022/01/15 04:02:07;;;;;;;592.47;275.13;;;-2.20;99.90;;;;;;5074158;28;20067;-54
2022/01/15 04:04:33;;;;;;;587.63;278.52;;;-2.20;99.90;;;;;;5074326;28;20101;-54
2022/01/15 04:06:59;;;;;;;602.05;287.73;;;-2.20;99.90;;;;;;5074078;28;20479;-54
2022/01/15 04:09:25;;;;;;;585.28;277.65;;;-2.30;99.90;;;;;;5074047;28;20024;-54
2022/01/15 04:11:51;;;;;;;586.45;274.70;;;-2.40;99.90;;;;;;5074171;28;20036;-54
2022/01/15 04:14:17;;;;;;;550.25;252.73;;;-2.20;99.90;;;;;;5074102;28;20032;-54
2022/01/15 04:16:43;;;;;;;562.65;258.05;;;-2.20;99.90;;;;;;5074102;28;20040;-54
2022/01/15 04:19:09;;;;;;;550.75;253.65;;;-2.30;99.90;;;;;;5073805;28;20076;-54
2022/01/15 04:21:37;;;;;;;579.22;268.33;;;-2.40;99.90;;;;;;5073908;28;20029;-54
2022/01/15 04:24:04;;;;;;;568.85;267.98;;;-2.30;99.90;;;;;;5073964;28;20107;-54
2022/01/15 04:26:30;;;;;;;541.90;247.65;;;-2.40;99.90;;;;;;5074077;28;20060;-54
2022/01/15 04:29:05;;;;;;;513.13;223.05;;;-2.40;99.90;;;;;;5074023;28;20032;-54
2022/01/15 04:31:46;;;;;;;448.05;190.88;;;-2.30;99.90;;;;;;5073912;28;20028;-54
2022/01/15 04:34:14;;;;;;;475.45;208.00;;;-2.30;99.90;;;;;;5073789;28;20386;-54
2022/01/15 04:36:40;;;;;;;473.98;206.27;;;-2.30;99.90;;;;;;5073721;28;20136;-54
2022/01/15 04:39:06;;;;;;;510.85;225.43;;;-2.40;99.90;;;;;;5073792;28;20115;-54
2022/01/15 04:41:32;;;;;;;535.00;237.02;;;-2.50;99.90;;;;;;5073644;28;20025;-54
2022/01/15 04:43:58;;;;;;;500.80;223.63;;;-2.50;99.90;;;;;;5073808;28;20405;-54
2022/01/15 04:46:23;;;;;;;512.35;231.25;;;-2.60;99.90;;;;;;5073760;28;20028;-54
2022/01/15 04:48:49;;;;;;;522.80;239.27;;;-2.70;99.90;;;;;;5073519;28;20039;-54
2022/01/15 04:51:15;;;;;;;568.65;264.77;;;-2.70;99.90;;;;;;5074441;28;20404;-54
2022/01/15 04:53:41;;;;;;;566.70;262.42;;;-2.70;99.90;;;;;;5077549;28;20029;-54
2022/01/15 04:56:07;;;;;;;554.20;256.17;;;-2.80;99.90;;;;;;5077558;28;20039;-54
2022/01/15 04:58:33;;;;;;;560.72;256.75;;;-2.70;99.90;;;;;;5077090;28;20032;-54
2022/01/15 05:00:59;;;;;;;553.33;250.60;;;-2.90;99.90;;;;;;5077069;28;20036;-54
2022/01/15 05:03:25;;;;;;;540.72;251.40;;;-2.80;99.90;;;;;;5077025;28;20430;-54
2022/01/15 05:05:51;;;;;;;530.15;239.95;;;-2.70;99.90;;;;;;5077120;28;20091;-54
2022/01/15 05:08:17;;;;;;;534.55;239.80;;;-2.80;99.90;;;;;;5077220;28;20485;-54
2022/01/15 05:10:47;;;;;;;557.85;257.85;;;-2.80;99.90;;;;;;5077131;28;20021;-54
2022/01/15 05:13:20;;;;;;;537.30;244.95;;;-2.80;99.90;;;;;;5076863;28;20120;-54
2022/01/15 05:15:46;;;;;;;547.38;252.57;;;-2.80;99.90;;;;;;5076972;28;20659;-55
2022/01/15 05:18:12;;;;;;;559.88;260.67;;;-2.80;99.90;;;;;;5076766;28;20539;-53
2022/01/15 05:20:43;;;;;;;572.17;260.80;;;-2.80;99.90;;;;;;5076643;28;20044;-54
2022/01/15 05:23:09;;;;;;;559.60;252.48;;;-2.70;99.90;;;;;;5076649;28;20453;-54
2022/01/15 05:25:35;;;;;;;547.95;255.40;;;-2.80;99.90;;;;;;5076901;28;20052;-54
2022/01/15 05:28:01;;;;;;;555.75;256.98;;;-2.70;99.90;;;;;;5076785;28;20470;-54
2022/01/15 05:30:30;;;;;;;534.72;240.07;;;-2.70;99.90;;;;;;5076622;28;20029;-54
2022/01/15 05:32:56;;;;;;;521.80;238.80;;;-2.60;99.90;;;;;;5076683;28;20052;-54
2022/01/15 05:35:26;;;;;;;483.77;217.40;;;-2.60;99.90;;;;;;5076848;28;20078;-54
2022/01/15 05:37:59;;;;;;;501.80;224.48;;;-2.60;99.90;;;;;;5076557;28;20028;-54
2022/01/15 05:40:26;;;;;;;513.97;231.90;;;-2.60;99.90;;;;;;5076666;28;20029;-54
2022/01/15 05:42:53;;;;;;;524.25;238.55;;;-2.70;99.90;;;;;;5076366;28;20383;-54
2022/01/15 05:45:21;;;;;;;502.58;223.85;;;-2.70;99.90;;;;;;5076410;28;20028;-54
2022/01/15 05:47:48;;;;;;;478.40;208.65;;;-2.60;99.90;;;;;;5076297;28;20033;-54
2022/01/15 05:50:14;;;;;;;481.10;212.38;;;-2.40;99.90;;;;;;5076429;28;20020;-54
2022/01/15 05:52:40;;;;;;;480.20;214.65;;;-2.40;99.90;;;;;;5076681;28;20024;-54
2022/01/15 05:55:07;;;;;;;485.05;210.48;;;-2.40;99.90;;;;;;5076714;28;20063;-54
2022/01/15 05:57:33;;;;;;;459.80;204.60;;;-2.40;99.90;;;;;;5076471;28;20028;-54
2022/01/15 05:59:59;;;;;;;484.10;215.63;;;-2.30;99.90;;;;;;5076461;28;20021;-54
2022/01/15 06:02:25;;;;;;;471.92;209.73;;;-2.20;99.90;;;;;;5076061;28;20502;-54
2022/01/15 06:04:51;;;;;;;490.60;212.55;;;-2.20;99.90;;;;;;5076101;28;20033;-54
2022/01/15 06:07:18;;;;;;;509.45;230.90;;;-2.10;99.90;;;;;;5075934;28;20071;-54
2022/01/15 06:09:43;;;;;;;502.15;232.73;;;-2.00;99.90;;;;;;5075952;28;20099;-54
2022/01/15 06:12:10;;;;;;;496.05;226.77;;;-2.10;99.90;;;;;;5075928;28;20318;-54
2022/01/15 06:14:36;;;;;;;513.78;232.50;;;-2.00;99.90;;;;;;5075896;28;20036;-54
2022/01/15 06:17:03;;;;;;;516.70;239.15;;;-1.90;99.90;;;;;;5075714;28;20028;-54
2022/01/15 06:19:29;;;;;;;514.10;235.18;;;-1.80;99.90;;;;;;5075761;28;20053;-54
2022/01/15 06:21:56;;;;;;;484.90;220.52;;;-1.70;99.90;;;;;;5075690;28;20032;-54
2022/01/15 06:24:22;;;;;;;468.92;210.80;;;-1.70;99.90;;;;;;5075530;28;20363;-54
2022/01/15 06:26:48;;;;;;;481.77;211.45;;;-1.70;99.90;;;;;;5075681;28;20025;-54
2022/01/15 06:29:14;;;;;;;467.50;209.00;;;-1.70;99.90;;;;;;5075580;28;20020;-54
2022/01/15 06:31:40;;;;;;;428.73;194.43;;;-1.70;99.90;;;;;;5075473;28;20086;-54
2022/01/15 06:34:06;;;;;;;391.98;175.05;;;-1.50;99.90;;;;;;5075414;28;20385;-54
2022/01/15 06:36:32;;;;;;;367.17;166.05;;;-1.60;99.90;;;;;;5075471;28;20024;-54
2022/01/15 06:39:17;;;;;;;322.13;143.65;;;-1.60;99.90;;;;;;5075308;28;20058;-54
2022/01/15 06:41:43;;;;;;;306.45;136.48;;;-1.50;99.90;;;;;;5075309;28;20111;-54
2022/01/15 06:44:08;;;;;;;325.77;145.25;;;-1.40;99.90;;;;;;5075123;28;20060;-54
2022/01/15 06:46:34;;;;;;;335.83;149.75;;;-1.50;99.90;;;;;;5075098;28;20031;-54
2022/01/15 06:49:00;;;;;;;385.02;181.38;;;-1.50;99.90;;;;;;5074806;28;20032;-54
2022/01/15 06:51:26;;;;;;;447.00;216.18;;;-1.50;99.90;;;;;;5075053;28;20039;-54
2022/01/15 06:53:52;;;;;;;449.48;214.77;;;-1.50;99.90;;;;;;5075069;28;20506;-54
2022/01/15 06:56:18;;;;;;;459.30;211.07;;;-1.40;99.90;;;;;;5075119;28;20037;-54
2022/01/15 06:58:45;;;;;;;489.75;226.90;;;-1.40;99.90;;;;;;5074929;28;20051;-54
2022/01/15 07:01:11;;;;;;;535.17;257.83;;;-1.30;99.90;;;;;;5074988;28;20029;-54
2022/01/15 07:03:39;;;;;;;530.90;249.50;;;-1.30;99.90;;;;;;5074768;28;20578;-54
2022/01/15 07:06:05;;;;;;;521.63;247.82;;;-1.30;99.90;;;;;;5074743;28;20025;-54
2022/01/15 07:08:31;;;;;;;521.33;251.68;;;-1.30;99.90;;;;;;5074770;28;20482;-54
2022/01/15 07:10:56;;;;;;;787.55;376.98;;;-1.20;99.90;;;;;;5074864;28;20032;-54
2022/01/15 07:13:22;;;;;;;868.60;401.58;;;-1.10;99.90;;;;;;5074370;28;20494;-54
2022/01/15 07:15:49;;;;;;;886.22;395.40;;;-1.00;99.90;;;;;;5074686;28;20037;-54
2022/01/15 07:18:18;;;;;;;638.65;302.33;;;-1.00;99.90;;;;;;5074644;28;20093;-54
2022/01/15 07:20:44;;;;;;;571.67;275.42;;;-1.00;99.90;;;;;;5074403;28;20402;-54
2022/01/15 07:23:10;;;;;;;559.70;267.17;;;-0.90;99.90;;;;;;5074597;28;20044;-54
2022/01/15 07:25:36;;;;;;;540.55;259.08;;;-0.80;99.90;;;;;;5074655;28;20498;-54
2022/01/15 07:28:02;;;;;;;570.88;271.00;;;-0.60;99.90;;;;;;5074325;28;20174;-54
2022/01/15 07:30:28;;;;;;;596.35;288.85;;;-0.60;99.90;;;;;;5074473;28;20035;-54
2022/01/15 07:32:54;;;;;;;603.60;293.05;;;-0.50;99.90;;;;;;5074540;28;20024;-54
2022/01/15 07:35:20;;;;;;;607.13;299.50;;;-0.40;99.90;;;;;;5074285;28;20028;-54
2022/01/15 07:37:46;;;;;;;575.95;273.55;;;-0.40;99.90;;;;;;5074398;28;20064;-55
2022/01/15 07:40:12;;;;;;;612.92;303.30;;;-0.30;99.90;;;;;;5074498;28;20024;-55
2022/01/15 07:42:40;;;;;;;617.97;301.58;;;-0.30;99.90;;;;;;5074254;28;20035;-54
2022/01/15 07:45:12;;;;;;;606.08;300.80;;;-0.20;99.90;;;;;;5074321;28;20025;-54
2022/01/15 07:47:38;;;;;;;578.78;285.83;;;-0.10;99.90;;;;;;5074282;28;20025;-54
2022/01/15 07:50:07;;;;;;;573.53;280.83;;;0.00;99.90;;;;;;5074113;28;20021;-54
2022/01/15 07:52:33;;;;;;;563.33;284.35;;;0.10;99.90;;;;;;5074380;28;20021;-54
2022/01/15 07:55:00;;;;;;;555.92;280.70;;;0.10;99.90;;;;;;5074350;28;20031;-54
2022/01/15 07:57:26;;;;;;;564.80;277.02;;;0.00;99.90;;;;;;5074039;28;20055;-54
2022/01/15 07:59:52;;;;;;;549.95;274.85;;;0.00;99.90;;;;;;5074297;28;20405;-54
2022/01/15 08:02:18;;;;;;;553.80;277.70;;;0.00;99.90;;;;;;5074233;28;20032;-54
2022/01/15 08:04:44;;;;;;;538.05;271.65;;;0.00;99.90;;;;;;5074388;28;20035;-54
2022/01/15 08:07:10;;;;;;;533.40;264.55;;;0.10;99.90;;;;;;5074258;28;20116;-54
2022/01/15 08:09:37;;;;;;;531.83;263.45;;;0.20;99.90;;;;;;5074011;28;20036;-54
2022/01/15 08:12:03;;;;;;;543.72;264.13;;;0.30;99.90;;;;;;5073986;28;20382;-55
2022/01/15 08:14:29;;;;;;;550.72;283.95;;;0.30;99.90;;;;;;5074328;28;20033;-54
2022/01/15 08:16:56;;;;;;;567.25;280.20;;;0.40;99.90;;;;;;5073979;28;20037;-55
2022/01/15 08:19:22;;;;;;;570.90;276.90;;;0.50;99.90;;;;;;5073624;28;20040;-55
2022/01/15 08:21:48;;;;;;;563.55;271.00;;;0.60;99.90;;;;;;5074074;28;20122;-55
2022/01/15 08:24:15;;;;;;;549.03;268.98;;;0.60;99.90;;;;;;5074007;28;20094;-55
2022/01/15 08:26:41;;;;;;;538.83;270.92;;;0.60;99.90;;;;;;5075500;28;20031;-54
2022/01/15 08:29:07;;;;;;;545.90;273.65;;;0.60;99.90;;;;;;5077894;28;20032;-55
2022/01/15 08:31:33;;;;;;;535.88;265.40;;;0.60;99.90;;;;;;5077706;28;20035;-54
2022/01/15 08:33:59;;;;;;;541.03;269.40;;;0.70;99.90;;;;;;5077932;28;20389;-55
2022/01/15 08:36:25;;;;;;;539.47;269.92;;;0.80;99.90;;;;;;5077502;28;20067;-55
2022/01/15 08:38:51;;;;;;;538.15;267.67;;;0.70;99.90;;;;;;5077526;28;20086;-55
2022/01/15 08:41:17;;;;;;;557.83;274.83;;;0.80;99.90;;;;;;5077656;28;20036;-55
2022/01/15 08:43:43;;;;;;;539.60;272.48;;;0.90;99.90;;;;;;5077540;28;20078;-55
2022/01/15 08:46:09;;;;;;;559.97;285.83;;;1.00;99.90;;;;;;5077338;28;20021;-55
2022/01/15 08:48:35;;;;;;;575.58;292.73;;;1.00;99.90;;;;;;5078045;28;20056;-55
2022/01/15 08:51:01;;;;;;;573.47;289.30;;;1.10;99.90;;;;;;5077573;28;20467;-55
2022/01/15 08:53:27;;;;;;;577.00;290.15;;;1.10;99.90;;;;;;5077804;28;20469;-55
2022/01/15 08:55:54;;;;;;;568.90;286.50;;;1.30;99.90;;;;;;5077259;28;20081;-55
2022/01/15 08:58:20;;;;;;;554.85;278.38;;;1.30;99.90;;;;;;5077205;28;20097;-55
2022/01/15 09:00:47;;;;;;;536.75;264.70;;;1.30;99.90;;;;;;5077219;28;20031;-55
2022/01/15 09:03:14;;;;;;;532.85;257.20;;;1.40;99.90;;;;;;5077431;28;20030;-55
2022/01/15 09:05:40;;;;;;;591.40;280.45;;;1.40;99.90;;;;;;5077408;28;20120;-55
2022/01/15 09:08:06;;;;;;;608.03;292.52;;;1.50;99.90;;;;;;5076934;28;20037;-55
2022/01/15 09:10:33;;;;;;;643.47;304.08;;;1.60;99.90;;;;;;5077183;28;20029;-54
2022/01/15 09:12:59;;;;;;;615.67;294.20;;;1.70;99.90;;;;;;5076951;28;20040;-55
2022/01/15 09:15:25;;;;;;;615.80;292.55;;;1.70;99.90;;;;;;5059052;28;20040;-55
2022/01/15 09:17:51;;;;;;;586.42;287.58;;;1.60;99.90;;;;;;5076808;28;20067;-55
2022/01/15 09:20:17;;;;;;;592.80;283.98;;;1.70;99.90;;;;;;5076669;28;20387;-55
2022/01/15 09:22:43;;;;;;;624.63;303.40;;;1.80;99.90;;;;;;5076792;28;20021;-55
2022/01/15 09:25:09;;;;;;;645.83;314.33;;;1.80;99.90;;;;;;5076873;28;20032;-55
2022/01/15 09:30:20;;;;;;;638.35;313.15;;;1.80;99.90;;;;;;5076755;28;20032;-55
2022/01/15 09:32:49;;;;;;;685.78;348.75;;;1.90;99.90;;;;;;5076846;28;20025;-55
2022/01/15 09:35:20;;;;;;;677.70;335.48;;;1.90;99.90;;;;;;5076660;28;20025;-55
2022/01/15 09:37:47;;;;;;;698.50;349.35;;;2.00;99.90;;;;;;5076126;28;20032;-54
2022/01/15 09:40:13;;;;;;;661.78;321.60;;;2.00;99.90;;;;;;5076570;28;20051;-55
2022/01/15 09:42:41;;;;;;;654.10;312.10;;;1.80;99.90;;;;;;5076286;28;20111;-55
2022/01/15 09:45:09;;;;;;;646.40;310.75;;;1.90;99.90;;;;;;5076370;28;20033;-55
2022/01/15 09:47:36;;;;;;;656.78;314.63;;;2.10;99.90;;;;;;5076500;28;20032;-55
2022/01/15 09:50:13;;;;;;;672.15;334.63;;;2.20;99.90;;;;;;5058230;28;20028;-54
2022/01/15 09:52:39;;;;;;;675.95;343.83;;;2.20;99.90;;;;;;5076399;28;20086;-55
2022/01/15 09:55:09;;;;;;;711.60;352.60;;;2.40;99.90;;;;;;5076252;28;20059;-55
2022/01/15 09:57:36;;;;;;;642.72;315.65;;;2.50;99.90;;;;;;5058013;28;20024;-55
2022/01/15 10:00:07;;;;;;;666.92;318.00;;;2.60;99.90;;;;;;5076540;28;20021;-55
2022/01/15 10:02:38;;;;;;;633.85;303.65;;;2.80;99.90;;;;;;5076183;28;20083;-55
2022/01/15 10:05:04;;;;;;;651.80;314.05;;;3.00;99.90;;;;;;5075892;28;20354;-55
2022/01/15 10:07:30;;;;;;;677.22;327.58;;;3.00;99.90;;;;;;5076055;28;20021;-55
2022/01/15 10:10:10;;;;;;;686.78;337.73;;;3.20;99.90;;;;;;5075978;28;20021;-55
2022/01/15 10:12:38;;;;;;;675.00;325.88;;;3.10;99.90;;;;;;5075850;28;20421;-55
2022/01/15 10:15:06;;;;;;;666.25;321.92;;;3.20;99.90;;;;;;5076124;28;20052;-55
2022/01/15 10:17:35;;;;;;;630.35;307.98;;;3.30;99.90;;;;;;5075818;28;20444;-55
2022/01/15 10:20:04;;;;;;;664.25;316.65;;;3.10;99.90;;;;;;5075532;28;20041;-55
2022/01/15 10:22:34;;;;;;;624.53;300.02;;;3.20;99.90;;;;;;5075805;28;20032;-55
2022/01/15 10:25:15;;;;;;;656.92;317.17;;;3.30;99.90;;;;;;5075780;28;20112;-54
2022/01/15 10:27:44;;;;;;;680.65;333.75;;;3.30;99.90;;;;;;5075836;28;20025;-55
2022/01/15 10:30:11;;;;;;;658.47;329.00;;;3.20;99.90;;;;;;5075589;28;20032;-55
2022/01/15 10:32:56;;;;;;;686.75;336.23;;;3.30;99.90;;;;;;5075347;28;20036;-55
2022/01/15 10:35:23;;;;;;;691.58;342.90;;;3.30;99.90;;;;;;5075575;28;20107;-55
2022/01/15 10:37:53;;;;;;;688.95;341.00;;;3.30;99.90;;;;;;5075552;28;20028;-55
2022/01/15 10:40:22;;;;;;;700.03;346.95;;;3.30;99.90;;;;;;5075236;28;20047;-55
2022/01/15 10:43:07;;;;;;;687.72;345.02;;;3.30;99.90;;;;;;5075150;28;20017;-55
2022/01/15 10:45:35;;;;;;;681.63;341.05;;;3.40;99.90;;;;;;5075390;28;20044;-55
2022/01/15 10:48:04;;;;;;;698.95;348.63;;;3.50;99.90;;;;;;5075010;28;20136;-55
2022/01/15 10:50:31;;;;;;;704.42;347.52;;;3.40;99.90;;;;;;5074481;28;20032;-54
2022/01/15 10:53:04;;;;;;;671.38;336.98;;;3.60;99.90;;;;;;5075294;28;20028;-55
2022/01/15 10:55:33;;;;;;;700.50;352.45;;;3.60;99.90;;;;;;5075115;28;20036;-55
2022/01/15 10:58:00;;;;;;;694.30;352.17;;;3.70;99.90;;;;;;5075090;28;20025;-55
2022/01/15 11:00:29;;;;;;;693.83;352.48;;;3.70;99.90;;;;;;5074167;28;20025;-55
2022/01/15 11:03:01;;;;;;;713.78;363.33;;;3.70;99.90;;;;;;5064208;28;20112;-55
2022/01/15 11:05:42;;;;;;;734.17;368.48;;;3.70;99.90;;;;;;5063745;28;20017;-55
2022/01/15 11:08:18;;;;;;;747.22;364.20;;;3.80;99.90;;;;;;5063730;28;20039;-55
2022/01/15 11:11:02;;;;;;;718.40;353.92;;;3.80;99.90;;;;;;5061159;28;20054;-55
2022/01/15 11:13:32;;;;;;;731.75;366.63;;;3.80;99.90;;;;;;5067351;28;20029;-55
2022/01/15 11:16:08;;;;;;;739.05;363.85;;;4.00;99.90;;;;;;5068645;28;20234;-55
2022/01/15 11:18:42;;;;;;;728.38;360.00;;;4.00;99.90;;;;;;5063871;28;20057;-55
2022/01/15 11:21:11;;;;;;;751.58;367.60;;;4.10;99.90;;;;;;5069937;28;20036;-55
2022/01/15 11:23:38;;;;;;;762.15;378.05;;;4.20;99.90;;;;;;5067123;28;20108;-55
2022/01/15 11:26:24;;;;;;;751.25;369.98;;;4.20;99.90;;;;;;5073644;28;20024;-55
2022/01/15 11:28:53;;;;;;;748.63;365.25;;;4.40;99.90;;;;;;5073856;28;20032;-55
2022/01/15 11:31:25;;;;;;;744.63;364.10;;;4.50;99.90;;;;;;5074362;28;20440;-57
2022/01/15 11:33:53;;;;;;;730.10;360.38;;;4.50;99.90;;;;;;5074666;28;20052;-55
2022/01/15 11:36:37;;;;;;;746.33;370.02;;;4.60;99.90;;;;;;5074487;28;20036;-55
2022/01/15 11:39:08;;;;;;;749.65;375.88;;;4.70;99.90;;;;;;5074470;28;20050;-55
2022/01/15 11:41:37;;;;;;;745.60;375.05;;;4.80;99.90;;;;;;5074306;28;20029;-55
2022/01/15 11:44:14;;;;;;;730.00;367.55;;;4.90;99.90;;;;;;5074243;28;20485;-55
2022/01/15 11:46:42;;;;;;;752.08;371.83;;;5.00;99.90;;;;;;5074492;28;20111;-55
2022/01/15 11:49:28;;;;;;;741.20;376.70;;;4.90;99.90;;;;;;5074312;28;20028;-55
2022/01/15 11:52:04;;;;;;;740.72;367.73;;;5.10;99.90;;;;;;5074301;28;20063;-55
2022/01/15 11:54:30;;;;;;;739.05;363.55;;;5.10;99.90;;;;;;5074645;28;20040;-55
2022/01/15 11:56:56;;;;;;;731.95;371.38;;;5.10;99.90;;;;;;5074279;28;20032;-55
2022/01/15 11:59:31;;;;;;;747.90;368.10;;;5.20;99.90;;;;;;5074402;28;20078;-55
2022/01/15 12:02:02;;;;;;;724.72;369.25;;;5.20;99.90;;;;;;5080548;28;20025;-55
2022/01/15 12:04:28;;;;;;;715.00;358.15;;;5.30;99.90;;;;;;5080949;28;20074;-55
2022/01/15 12:07:06;;;;;;;726.60;370.65;;;5.20;99.90;;;;;;5080969;28;20099;-55
2022/01/15 12:09:40;;;;;;;723.58;374.45;;;5.30;99.90;;;;;;5080717;28;20476;-55
2022/01/15 12:12:26;;;;;;;720.83;369.23;;;5.40;99.90;;;;;;5080846;28;20044;-55
2022/01/15 12:15:04;;;;;;;700.70;351.88;;;5.40;99.90;;;;;;5060826;28;20043;-55
2022/01/15 12:17:41;;;;;;;695.85;347.83;;;5.50;99.90;;;;;;5061259;28;20033;-55
2022/01/15 12:20:17;;;;;;;685.05;346.83;;;5.50;99.90;;;;;;5080441;28;20036;-55
2022/01/15 12:22:45;;;;;;;691.65;352.67;;;5.60;99.90;;;;;;5080800;28;20427;-55
2022/01/15 12:25:27;;;;;;;671.10;343.83;;;5.70;99.90;;;;;;5080655;28;20028;-55
2022/01/15 12:28:16;;;;;;;683.08;349.20;;;5.70;99.90;;;;;;5062902;28;20028;-55
2022/01/15 12:30:47;;;;;;;680.72;346.83;;;5.80;99.90;;;;;;5041330;28;20037;-55
2022/01/15 12:33:14;;;;;;;;;;;6.00;99.90;;;;;;5058508;28;20074;-55
2022/01/15 12:35:47;;;;;;;644.00;319.45;;;6.00;99.90;;;;;;5058009;28;20302;-55
2022/01/15 12:38:28;;;;;;;608.83;293.77;;;6.20;99.90;;;;;;5058109;28;20029;-55